PWSweather.com
Personal Weather Stations
Station Observations
KNCELIZA3
Elizabeth City, NC 27909

Elizabeth City, NC 27909

Lat: 36.242, Lon: -76.215

Elevation: 12

Station Type: Davis Vantage Vue

High Low Average
Temperature 61.1°F16.2°C 49.5°F9.7°C 54.5°F12.5°C
Dew Point 41.3°F5.2°C 29.8°F-1.2°C 33.8°F1.0°C
Winds 23.6 mph 38.0 kmh 3.1 mph 5.0 kmh 11.0 mph WSW17.7 kmh WSW
Wind Gusts 21.0 mph33.8 kmh 5.2 mph8.4 kmh 13.0 mph20.9 kmh
Humidity 59% 37% 46%
Pressure 30.01 in1016.3 mb 29.79 in1008.8 mb -
Precipitation 0.00 in0.0 mm - -
Hour Temp Dew Point Humidity Winds Wind Gusts Pressure Precip Precip Rate Daily Precip Total
12:00 AM 61.1°F16.2°C 41.3°F5.2°C 48% 3.1 mph NW5.0 kmh NW 6.3 mph10.1 kmh 29.80 in1009.1 mb 0.00 in0.0 mm 0.00 in/hr0.0 mm/hr 0.00 in0.0 mm
12:30 AM 60.7°F15.9°C 40.3°F4.6°C 47% 7.9 mph NW12.7 kmh NW 12.6 mph20.3 kmh 29.80 in1009.1 mb 0.00 in0.0 mm 0.00 in/hr0.0 mm/hr 0.00 in0.0 mm
01:00 AM 59.6°F15.3°C 38.3°F3.5°C 45% 11.0 mph NNE17.7 kmh NNE 21.0 mph33.8 kmh 29.79 in1008.8 mb 0.00 in0.0 mm 0.00 in/hr0.0 mm/hr 0.00 in0.0 mm
01:30 AM 58.5°F14.7°C 36.7°F2.6°C 44% 11.0 mph N17.7 kmh N 13.6 mph21.9 kmh 29.81 in1009.5 mb 0.00 in0.0 mm 0.00 in/hr0.0 mm/hr 0.00 in0.0 mm
02:00 AM 57.2°F14.0°C 37.1°F2.8°C 47% 9.4 mph NNE15.1 kmh NNE 10.5 mph16.9 kmh 29.83 in1010.2 mb 0.00 in0.0 mm 0.00 in/hr0.0 mm/hr 0.00 in0.0 mm
02:30 AM 56.1°F13.4°C 37.8°F3.2°C 50% 4.7 mph E7.6 kmh E 12.6 mph20.3 kmh 29.82 in1009.8 mb 0.00 in0.0 mm 0.00 in/hr0.0 mm/hr 0.00 in0.0 mm
03:00 AM 55.0°F12.8°C 39.2°F4.0°C 55% 9.4 mph NW15.1 kmh NW 11.5 mph18.5 kmh 29.83 in1010.2 mb 0.00 in0.0 mm 0.00 in/hr0.0 mm/hr 0.00 in0.0 mm
03:30 AM 53.4°F11.9°C 38.5°F3.6°C 57% 9.4 mph NNW15.1 kmh NNW 9.4 mph15.1 kmh 29.84 in1010.5 mb 0.00 in0.0 mm 0.00 in/hr0.0 mm/hr 0.00 in0.0 mm
04:00 AM 52.1°F11.2°C 36.5°F2.5°C 55% 12.6 mph NW20.3 kmh NW 10.5 mph16.9 kmh 29.86 in1011.2 mb 0.00 in0.0 mm 0.00 in/hr0.0 mm/hr 0.00 in0.0 mm
04:30 AM 50.8°F10.4°C 36.1°F2.3°C 57% 3.1 mph NNE5.0 kmh NNE 5.2 mph8.4 kmh 29.87 in1011.5 mb 0.00 in0.0 mm 0.00 in/hr0.0 mm/hr 0.00 in0.0 mm
05:00 AM 50.1°F10.1°C 36.3°F2.4°C 59% 4.7 mph NW7.6 kmh NW 5.2 mph8.4 kmh 29.87 in1011.5 mb 0.00 in0.0 mm 0.00 in/hr0.0 mm/hr 0.00 in0.0 mm
05:30 AM 49.8°F9.9°C 31.9°F-0.1°C 50% 9.4 mph NW15.1 kmh NW 12.6 mph20.3 kmh 29.89 in1012.2 mb 0.00 in0.0 mm 0.00 in/hr0.0 mm/hr 0.00 in0.0 mm
06:00 AM 49.5°F9.7°C 31.2°F-0.4°C 49% 9.4 mph N15.1 kmh N 9.4 mph15.1 kmh 29.90 in1012.5 mb 0.00 in0.0 mm 0.00 in/hr0.0 mm/hr 0.00 in0.0 mm
06:30 AM 49.7°F9.8°C 31.8°F-0.1°C 50% 7.9 mph NNW12.7 kmh NNW 9.4 mph15.1 kmh 29.91 in1012.9 mb 0.00 in0.0 mm 0.00 in/hr0.0 mm/hr 0.00 in0.0 mm
12:30 PM 56.6°F13.7°C 30.6°F-0.8°C 37% 23.6 mph WSW38.0 kmh WSW 15.7 mph25.3 kmh 29.93 in1013.5 mb 0.00 in0.0 mm 0.00 in/hr0.0 mm/hr 0.00 in0.0 mm
01:00 PM 56.3°F13.5°C 31.7°F-0.2°C 39% 11.0 mph W17.7 kmh W 15.7 mph25.3 kmh 29.93 in1013.5 mb 0.00 in0.0 mm 0.00 in/hr0.0 mm/hr 0.00 in0.0 mm
01:30 PM 55.2°F12.9°C 30.7°F-0.7°C 39% 15.7 mph NW25.3 kmh NW 15.7 mph25.3 kmh 29.94 in1013.9 mb 0.00 in0.0 mm 0.00 in/hr0.0 mm/hr 0.00 in0.0 mm
02:00 PM 55.2°F12.9°C 31.9°F-0.1°C 41% 17.3 mph WNW27.8 kmh WNW 16.8 mph27.0 kmh 29.93 in1013.5 mb 0.00 in0.0 mm 0.00 in/hr0.0 mm/hr 0.00 in0.0 mm
02:30 PM 55.1°F12.8°C 31.9°F-0.1°C 41% 14.1 mph NW22.7 kmh NW 14.7 mph23.7 kmh 29.93 in1013.5 mb 0.00 in0.0 mm 0.00 in/hr0.0 mm/hr 0.00 in0.0 mm
03:00 PM 54.4°F12.4°C 31.8°F-0.1°C 42% 14.1 mph W22.7 kmh W 16.8 mph27.0 kmh 29.94 in1013.9 mb 0.00 in0.0 mm 0.00 in/hr0.0 mm/hr 0.00 in0.0 mm
03:30 PM 53.6°F12.0°C 30.5°F-0.8°C 41% 11.0 mph WNW17.7 kmh WNW 15.7 mph25.3 kmh 29.95 in1014.2 mb 0.00 in0.0 mm 0.00 in/hr0.0 mm/hr 0.00 in0.0 mm
04:00 PM 54.2°F12.3°C 31.0°F-0.6°C 41% 9.4 mph NW15.1 kmh NW 16.8 mph27.0 kmh 29.95 in1014.2 mb 0.00 in0.0 mm 0.00 in/hr0.0 mm/hr 0.00 in0.0 mm
04:30 PM 55.0°F12.8°C 30.5°F-0.8°C 39% 11.0 mph WNW17.7 kmh WNW 12.6 mph20.3 kmh 29.97 in1014.9 mb 0.00 in0.0 mm 0.00 in/hr0.0 mm/hr 0.00 in0.0 mm
05:00 PM 53.6°F12.0°C 29.9°F-1.2°C 40% 15.7 mph NW25.3 kmh NW 13.6 mph21.9 kmh 29.97 in1014.9 mb 0.00 in0.0 mm 0.00 in/hr0.0 mm/hr 0.00 in0.0 mm
05:30 PM 54.5°F12.5°C 30.1°F-1.1°C 39% 14.1 mph NW22.7 kmh NW 14.7 mph23.7 kmh 29.98 in1015.2 mb 0.00 in0.0 mm 0.00 in/hr0.0 mm/hr 0.00 in0.0 mm
06:01 PM 53.0°F11.7°C 30.0°F-1.1°C 41% 12.6 mph WNW20.3 kmh WNW 10.5 mph16.9 kmh 30.00 in1015.9 mb 0.00 in0.0 mm 0.00 in/hr0.0 mm/hr 0.00 in0.0 mm
06:30 PM 51.5°F10.8°C 29.8°F-1.2°C 43% 11.0 mph W17.7 kmh W 11.5 mph18.5 kmh 30.01 in1016.3 mb 0.00 in0.0 mm 0.00 in/hr0.0 mm/hr 0.00 in0.0 mm
07:00 PM 50.4°F10.2°C 31.4°F-0.3°C 48% 6.3 mph WNW10.1 kmh WNW 5.2 mph8.4 kmh 30.02 in1016.6 mb 0.00 in0.0 mm 0.00 in/hr0.0 mm/hr 0.00 in0.0 mm
07:30 PM 49.2°F9.6°C 33.8°F1.0°C 55% 4.7 mph W7.6 kmh W 5.2 mph8.4 kmh 30.03 in1016.9 mb 0.00 in0.0 mm 0.00 in/hr0.0 mm/hr 0.00 in0.0 mm
08:00 PM 50.2°F10.1°C 32.3°F0.2°C 50% 6.3 mph WNW10.1 kmh WNW 9.4 mph15.1 kmh 30.04 in1017.3 mb 0.00 in0.0 mm 0.00 in/hr0.0 mm/hr 0.00 in0.0 mm
08:30 PM 49.4°F9.7°C 33.0°F0.6°C 53% 6.3 mph W10.1 kmh W 7.3 mph11.7 kmh 30.05 in1017.6 mb 0.00 in0.0 mm 0.00 in/hr0.0 mm/hr 0.00 in0.0 mm
09:00 PM 48.4°F9.1°C 34.3°F1.3°C 58% 3.1 mph W5.0 kmh W 3.1 mph5.0 kmh 30.05 in1017.6 mb 0.00 in0.0 mm 0.00 in/hr0.0 mm/hr 0.00 in0.0 mm
09:30 PM 46.8°F8.2°C 34.0°F1.1°C 61% 1.6 mph W2.6 kmh W 2.1 mph3.4 kmh 30.05 in1017.6 mb 0.00 in0.0 mm 0.00 in/hr0.0 mm/hr 0.00 in0.0 mm
10:00 PM 45.4°F7.4°C 34.0°F1.1°C 64% 1.6 mph WSW2.6 kmh WSW 5.2 mph8.4 kmh 30.05 in1017.6 mb 0.00 in0.0 mm 0.00 in/hr0.0 mm/hr 0.00 in0.0 mm
10:30 PM 44.6°F7.0°C 34.0°F1.1°C 66% 4.7 mph W7.6 kmh W 5.2 mph8.4 kmh 30.05 in1017.6 mb 0.00 in0.0 mm 0.00 in/hr0.0 mm/hr 0.00 in0.0 mm
11:00 PM 45.0°F7.2°C 34.0°F1.1°C 65% 6.3 mph W10.1 kmh W 7.3 mph11.7 kmh 30.05 in1017.6 mb 0.00 in0.0 mm 0.00 in/hr0.0 mm/hr 0.00 in0.0 mm
11:30 PM 45.3°F7.4°C 33.5°F0.8°C 63% 6.3 mph NW10.1 kmh NW 9.4 mph15.1 kmh 30.06 in1017.9 mb 0.00 in0.0 mm 0.00 in/hr0.0 mm/hr 0.00 in0.0 mm